createdAt,value
2023-02-09T00:01:38.487Z,65.68
2023-02-09T00:04:08.458Z,65.54
2023-02-09T00:06:39.219Z,64.10
2023-02-09T00:09:10.215Z,64.38
2023-02-09T00:12:01.915Z,64.92
2023-02-09T00:14:34.865Z,65.03
2023-02-09T00:17:07.164Z,64.90
2023-02-09T00:19:37.009Z,65.42
2023-02-09T00:22:06.807Z,64.81
2023-02-09T00:24:39.665Z,64.54
2023-02-09T00:27:09.704Z,64.45
2023-02-09T00:29:39.397Z,64.55
2023-02-09T00:32:09.248Z,64.86
2023-02-09T00:34:39.026Z,64.19
2023-02-09T00:37:08.965Z,65.37
2023-02-09T00:39:38.888Z,65.81
2023-02-09T00:42:08.430Z,65.32
2023-02-09T00:44:42.298Z,66.32
2023-02-09T00:47:12.637Z,65.65
2023-02-09T00:49:44.075Z,66.34
2023-02-09T00:52:13.619Z,66.56
2023-02-09T00:54:43.169Z,65.99
2023-02-09T00:57:15.654Z,67.43
2023-02-09T00:59:44.780Z,67.33
2023-02-09T01:02:14.633Z,67.48
2023-02-09T01:04:44.479Z,65.88
2023-02-09T01:07:14.623Z,66.08
2023-02-09T01:09:45.843Z,65.86
2023-02-09T01:12:16.150Z,66.13
2023-02-09T01:14:46.825Z,66.75
2023-02-09T01:17:16.352Z,66.20
2023-02-09T01:19:45.694Z,66.30
2023-02-09T01:22:21.049Z,65.62
2023-02-09T01:24:51.529Z,66.52
2023-02-09T01:27:20.559Z,66.40
2023-02-09T01:29:50.978Z,65.92
2023-02-09T01:32:20.578Z,65.86
2023-02-09T01:34:53.236Z,66.05
2023-02-09T01:37:23.592Z,65.95
2023-02-09T01:39:54.192Z,65.98
2023-02-09T01:42:23.851Z,65.35
2023-02-09T01:45:16.584Z,65.58
2023-02-09T01:47:56.011Z,66.31
2023-02-09T01:50:31.241Z,66.44
2023-02-09T01:53:04.103Z,67.35
2023-02-09T01:55:41.063Z,66.06
2023-02-09T01:58:18.253Z,66.57
2023-02-09T02:00:51.654Z,65.70
2023-02-09T02:03:27.016Z,66.04
2023-02-09T02:06:06.665Z,66.69
2023-02-09T02:08:43.989Z,66.44
2023-02-09T02:11:14.033Z,66.25
2023-02-09T02:13:44.407Z,66.36
2023-02-09T02:16:40.449Z,66.62
2023-02-09T02:19:33.378Z,66.38
2023-02-09T02:22:27.581Z,66.09
2023-02-09T02:25:01.111Z,66.85
2023-02-09T02:27:48.096Z,66.76
2023-02-09T02:30:35.228Z,67.30
2023-02-09T02:33:19.482Z,66.46
2023-02-09T02:36:14.446Z,66.09
2023-02-09T02:39:12.765Z,66.34
2023-02-09T02:42:21.467Z,66.38
2023-02-09T02:45:29.949Z,65.59
2023-02-09T02:48:11.256Z,66.48
2023-02-09T02:50:58.355Z,67.02
2023-02-09T02:53:33.031Z,66.88
2023-02-09T02:57:03.872Z,67.42
2023-02-09T02:59:42.378Z,67.32
2023-02-09T03:02:29.295Z,67.26
2023-02-09T03:05:02.035Z,68.04
2023-02-09T03:07:33.398Z,68.40
2023-02-09T03:10:33.125Z,67.45
2023-02-09T03:13:34.414Z,67.56
2023-02-09T03:16:22.094Z,68.25
2023-02-09T03:18:56.772Z,68.84
2023-02-09T03:21:50.253Z,68.26
2023-02-09T03:24:46.434Z,67.96
2023-02-09T03:27:17.706Z,67.32
2023-02-09T03:29:55.770Z,67.22
2023-02-09T03:32:26.533Z,66.60
2023-02-09T03:34:58.494Z,66.21
2023-02-09T03:37:28.478Z,67.26
2023-02-09T03:39:57.727Z,66.85
2023-02-09T03:42:27.035Z,67.39
2023-02-09T03:44:57.085Z,67.55
2023-02-09T03:47:26.563Z,67.48
2023-02-09T03:49:58.914Z,67.41
2023-02-09T03:52:31.489Z,67.67
2023-02-09T03:55:02.317Z,67.47
2023-02-09T03:57:33.993Z,67.69
2023-02-09T04:00:04.621Z,67.51
2023-02-09T04:02:43.909Z,67.91
2023-02-09T04:05:14.252Z,67.98
2023-02-09T04:07:45.195Z,67.95
2023-02-09T04:10:15.835Z,67.81
2023-02-09T04:12:45.939Z,67.98
2023-02-09T04:15:15.786Z,68.47
2023-02-09T04:17:49.902Z,69.65
2023-02-09T04:20:20.404Z,68.52
2023-02-09T04:22:49.982Z,67.42
2023-02-09T04:25:19.971Z,67.25
2023-02-09T04:27:50.139Z,67.30
2023-02-09T04:30:20.204Z,67.25
2023-02-09T04:32:50.737Z,67.79
2023-02-09T04:35:22.707Z,67.94
2023-02-09T04:37:53.333Z,67.75
2023-02-09T04:40:23.140Z,67.24
2023-02-09T04:42:53.494Z,67.05
2023-02-09T04:45:27.126Z,67.03
2023-02-09T04:47:56.327Z,67.09
2023-02-09T04:50:26.777Z,67.96
2023-02-09T04:52:57.355Z,68.05
2023-02-09T04:55:27.548Z,66.92
2023-02-09T04:58:17.296Z,66.89
2023-02-09T05:00:50.431Z,67.61
2023-02-09T05:03:22.520Z,67.87
2023-02-09T05:06:02.418Z,67.92
2023-02-09T05:08:32.351Z,67.36
2023-02-09T05:11:02.909Z,67.03
2023-02-09T05:13:35.154Z,67.30
2023-02-09T05:16:13.134Z,67.34
2023-02-09T05:18:46.985Z,67.51
2023-02-09T05:21:19.147Z,67.44
2023-02-09T05:23:48.337Z,67.39
2023-02-09T05:26:20.600Z,67.30
2023-02-09T05:28:50.685Z,66.99
2023-02-09T05:31:22.532Z,67.25
2023-02-09T05:33:52.380Z,66.25
2023-02-09T05:36:21.924Z,65.85
2023-02-09T05:38:51.407Z,66.86
2023-02-09T05:41:41.990Z,66.84
2023-02-09T05:44:12.624Z,66.67
2023-02-09T05:46:42.645Z,66.96
2023-02-09T05:49:13.285Z,66.82
2023-02-09T05:51:43.814Z,66.46
2023-02-09T05:54:16.291Z,66.87
2023-02-09T05:56:46.651Z,67.42
2023-02-09T05:59:16.676Z,67.19
2023-02-09T06:01:50.248Z,67.67
2023-02-09T06:04:20.952Z,67.64
2023-02-09T06:06:51.170Z,67.57
2023-02-09T06:09:22.303Z,67.47
2023-02-09T06:11:52.125Z,67.43
2023-02-09T06:14:23.392Z,68.26
2023-02-09T06:16:55.214Z,67.01
2023-02-09T06:19:27.685Z,67.53
2023-02-09T06:21:58.253Z,68.13
2023-02-09T06:24:28.046Z,68.04
2023-02-09T06:26:57.267Z,67.37
2023-02-09T06:29:26.620Z,67.24
2023-02-09T06:31:57.534Z,66.52
2023-02-09T06:34:28.940Z,67.19
2023-02-09T06:36:58.173Z,67.26
2023-02-09T06:39:29.978Z,67.73
2023-02-09T06:42:00.699Z,67.74
2023-02-09T06:44:30.809Z,67.53
2023-02-09T06:47:02.195Z,67.51
2023-02-09T06:49:33.246Z,67.65
2023-02-09T06:52:02.887Z,67.73
2023-02-09T06:54:33.061Z,67.73
2023-02-09T06:57:02.484Z,67.61
2023-02-09T06:59:32.606Z,67.81
2023-02-09T07:02:02.222Z,67.74
2023-02-09T07:04:32.874Z,67.97
2023-02-09T07:07:07.383Z,68.06
2023-02-09T07:09:39.737Z,68.57
2023-02-09T07:12:11.436Z,68.42
2023-02-09T07:14:42.394Z,68.38
2023-02-09T07:17:16.509Z,67.68
2023-02-09T07:19:51.745Z,67.88
2023-02-09T07:22:23.326Z,67.18
2023-02-09T07:24:58.165Z,67.52
2023-02-09T07:27:28.152Z,67.21
2023-02-09T07:30:00.465Z,67.08
2023-02-09T07:32:30.879Z,66.42
2023-02-09T07:35:02.816Z,66.61
2023-02-09T07:37:34.575Z,66.76
2023-02-09T07:40:18.752Z,66.53
2023-02-09T07:42:52.251Z,66.85
2023-02-09T07:45:22.648Z,65.86
2023-02-09T07:47:53.558Z,66.02
2023-02-09T07:50:25.441Z,66.01
2023-02-09T07:52:56.121Z,65.62
2023-02-09T07:55:27.858Z,65.20
2023-02-09T07:57:58.055Z,65.09
2023-02-09T08:00:28.600Z,65.33
2023-02-09T08:02:57.873Z,64.75
2023-02-09T08:05:50.858Z,64.65
2023-02-09T08:08:20.294Z,63.19
2023-02-09T08:10:54.038Z,62.59
2023-02-09T08:13:33.411Z,62.91
2023-02-09T08:16:06.126Z,62.51
2023-02-09T08:18:43.640Z,62.14
2023-02-09T08:21:17.762Z,62.06
2023-02-09T08:23:56.787Z,61.28
2023-02-09T08:26:27.630Z,60.86
2023-02-09T08:29:04.397Z,60.23
2023-02-09T08:31:46.240Z,59.96
2023-02-09T08:34:21.352Z,59.89
2023-02-09T08:36:54.078Z,59.95
2023-02-09T08:39:36.802Z,59.58
2023-02-09T08:42:06.380Z,59.06
2023-02-09T08:44:36.438Z,59.36
2023-02-09T08:47:06.029Z,58.79
2023-02-09T08:49:37.144Z,59.12
2023-02-09T08:52:08.739Z,59.27
2023-02-09T08:54:39.328Z,58.49
2023-02-09T08:57:09.436Z,58.50
2023-02-09T08:59:38.622Z,57.70
2023-02-09T09:02:08.812Z,57.06
2023-02-09T09:04:39.044Z,57.42
2023-02-09T09:07:10.596Z,57.58
2023-02-09T09:09:40.735Z,57.42
2023-02-09T09:12:11.120Z,56.76
2023-02-09T09:14:42.308Z,57.39
2023-02-09T09:17:11.674Z,56.57
2023-02-09T09:19:42.501Z,56.67
2023-02-09T09:22:15.957Z,56.13
2023-02-09T09:24:45.860Z,55.07
2023-02-09T09:27:17.885Z,55.77
2023-02-09T09:29:48.955Z,55.18
2023-02-09T09:32:25.901Z,55.22
2023-02-09T09:34:59.348Z,54.63
2023-02-09T09:37:29.596Z,53.86
2023-02-09T09:39:59.969Z,52.92
2023-02-09T09:42:43.365Z,52.96
2023-02-09T09:45:16.949Z,52.11
2023-02-09T09:47:48.396Z,51.72
2023-02-09T09:50:32.958Z,51.43
2023-02-09T09:53:09.544Z,50.44
2023-02-09T09:55:43.543Z,49.06
2023-02-09T09:58:23.975Z,48.40
2023-02-09T10:00:55.883Z,47.55
2023-02-09T10:03:26.756Z,46.75
2023-02-09T10:06:18.618Z,46.29
2023-02-09T10:09:19.445Z,45.69
2023-02-09T10:12:04.568Z,44.21
2023-02-09T10:14:43.978Z,43.78
2023-02-09T10:17:25.116Z,43.22
2023-02-09T10:20:12.366Z,42.09
2023-02-09T10:23:04.974Z,42.14
2023-02-09T10:26:02.589Z,40.27
2023-02-09T10:28:46.443Z,39.40
2023-02-09T10:31:33.503Z,37.93
2023-02-09T10:34:50.728Z,37.47
2023-02-09T10:37:44.722Z,36.83
2023-02-09T10:40:47.775Z,36.86
2023-02-09T10:43:36.179Z,35.79
2023-02-09T10:46:30.433Z,34.67
2023-02-09T10:49:46.561Z,33.48
2023-02-09T10:52:36.947Z,32.95
2023-02-09T10:55:38.037Z,32.41
2023-02-09T10:58:39.347Z,32.15
2023-02-09T11:01:46.376Z,33.51
2023-02-09T11:04:40.479Z,33.20
2023-02-09T11:07:55.756Z,32.79
2023-02-09T11:10:55.894Z,32.55
2023-02-09T11:13:35.740Z,33.06
2023-02-09T11:16:52.406Z,31.62
2023-02-09T11:19:43.253Z,30.79
2023-02-09T11:22:46.516Z,30.90
2023-02-09T11:25:42.456Z,30.66
2023-02-09T11:28:28.239Z,30.53
2023-02-09T11:31:32.376Z,30.66
2023-02-09T11:34:45.090Z,29.79
2023-02-09T11:37:47.693Z,29.05
2023-02-09T11:40:39.549Z,28.83
2023-02-09T11:43:11.469Z,28.13
2023-02-09T11:46:04.863Z,27.76
2023-02-09T11:49:09.198Z,27.40
2023-02-09T11:52:11.838Z,27.35
2023-02-09T11:55:34.558Z,27.26
2023-02-09T11:58:29.671Z,26.31
2023-02-09T12:01:38.505Z,25.29
2023-02-09T12:04:46.722Z,23.92
2023-02-09T12:07:46.192Z,23.86
2023-02-09T12:10:52.118Z,23.61
2023-02-09T12:14:04.169Z,23.29
2023-02-09T12:16:50.541Z,23.29
2023-02-09T12:19:50.536Z,23.50
2023-02-09T12:22:48.403Z,24.05
2023-02-09T12:26:09.077Z,23.19
2023-02-09T12:29:01.205Z,22.76
2023-02-09T12:31:58.385Z,22.56
2023-02-09T12:34:57.148Z,22.32
2023-02-09T12:37:41.291Z,22.63
2023-02-09T12:40:42.646Z,22.91
2023-02-09T12:43:35.258Z,22.85
2023-02-09T12:46:55.702Z,22.40
2023-02-09T12:49:28.510Z,22.28
2023-02-09T12:52:01.785Z,22.54
2023-02-09T12:54:42.835Z,21.92
2023-02-09T12:57:17.672Z,22.19
2023-02-09T13:00:05.525Z,21.96
2023-02-09T13:02:47.342Z,22.08
2023-02-09T13:05:27.835Z,22.44
2023-02-09T13:08:04.550Z,22.94
2023-02-09T13:11:00.246Z,22.91
2023-02-09T13:13:57.018Z,23.49
2023-02-09T13:16:30.511Z,23.11
2023-02-09T13:19:15.659Z,24.05
2023-02-09T13:22:16.775Z,24.03
2023-02-09T13:25:03.931Z,23.32
2023-02-09T13:27:52.265Z,23.31
2023-02-09T13:30:33.534Z,23.31
2023-02-09T13:33:36.552Z,23.52
2023-02-09T13:36:42.655Z,23.93
2023-02-09T13:39:27.322Z,24.37
2023-02-09T13:42:09.724Z,24.33
2023-02-09T13:44:48.140Z,24.05
2023-02-09T13:47:20.932Z,24.21
2023-02-09T13:50:06.737Z,24.44
2023-02-09T13:52:45.044Z,24.36
2023-02-09T13:55:23.631Z,24.82
2023-02-09T13:58:07.688Z,24.98
2023-02-09T14:01:09.352Z,24.80
2023-02-09T14:03:58.211Z,24.81
2023-02-09T14:06:46.696Z,25.05
2023-02-09T14:09:33.712Z,24.55
2023-02-09T14:12:09.765Z,24.81
2023-02-09T14:15:04.176Z,25.25
2023-02-09T14:17:36.287Z,25.39
2023-02-09T14:20:22.140Z,25.76
2023-02-09T14:23:02.075Z,25.62
2023-02-09T14:25:32.331Z,25.35
2023-02-09T14:28:03.924Z,25.54
2023-02-09T14:30:37.846Z,25.74
2023-02-09T14:33:29.723Z,25.75
2023-02-09T14:36:03.595Z,25.51
2023-02-09T14:38:41.788Z,25.67
2023-02-09T14:41:32.125Z,25.96
2023-02-09T14:44:22.780Z,26.46
2023-02-09T14:47:00.479Z,26.67
2023-02-09T14:49:31.341Z,26.64
2023-02-09T14:52:05.880Z,26.32
2023-02-09T14:54:50.071Z,26.00
2023-02-09T14:57:21.766Z,26.75
2023-02-09T14:59:52.118Z,27.12
2023-02-09T15:02:27.671Z,27.62
2023-02-09T15:04:56.952Z,28.12
2023-02-09T15:07:36.583Z,29.12
2023-02-09T15:10:14.855Z,30.02
2023-02-09T15:12:44.544Z,30.62
2023-02-09T15:15:20.338Z,31.20
2023-02-09T15:17:50.759Z,31.68
2023-02-09T15:20:26.696Z,32.31
2023-02-09T15:23:01.720Z,33.71
2023-02-09T15:25:34.185Z,34.23
2023-02-09T15:28:04.517Z,34.12
2023-02-09T15:30:36.650Z,34.77
2023-02-09T15:33:08.824Z,35.05
2023-02-09T15:35:41.834Z,36.12
2023-02-09T15:38:16.201Z,37.81
2023-02-09T15:41:08.279Z,38.65
2023-02-09T15:43:56.944Z,39.00
2023-02-09T15:46:46.118Z,38.69
2023-02-09T15:49:16.589Z,39.48
2023-02-09T15:51:46.331Z,39.32
2023-02-09T15:54:20.626Z,40.36
2023-02-09T15:56:51.043Z,41.03
2023-02-09T15:59:23.878Z,40.48
2023-02-09T16:01:54.805Z,40.96
2023-02-09T16:04:24.572Z,40.54
2023-02-09T16:06:55.904Z,40.59
2023-02-09T16:09:28.233Z,40.86
2023-02-09T16:11:59.566Z,42.06
2023-02-09T16:14:32.020Z,42.03
2023-02-09T16:17:01.671Z,42.12
2023-02-09T16:19:31.621Z,42.97
2023-02-09T16:22:09.891Z,42.64
2023-02-09T16:24:51.850Z,42.91
2023-02-09T16:27:31.324Z,42.57
2023-02-09T16:30:05.131Z,43.74
2023-02-09T16:32:37.566Z,43.09
2023-02-09T16:35:17.064Z,43.04
2023-02-09T16:37:50.190Z,43.55
2023-02-09T16:40:38.837Z,44.62
2023-02-09T16:43:13.157Z,44.92
2023-02-09T16:46:00.907Z,44.78
2023-02-09T16:48:38.377Z,44.57
2023-02-09T16:51:16.861Z,43.39
2023-02-09T16:53:54.595Z,43.62
2023-02-09T16:56:28.063Z,45.05
2023-02-09T16:59:03.372Z,44.45
2023-02-09T17:01:34.919Z,44.00
2023-02-09T17:04:09.902Z,44.71
2023-02-09T17:06:40.275Z,45.73
2023-02-09T17:09:16.779Z,45.03
2023-02-09T17:11:54.688Z,46.97
2023-02-09T17:14:28.671Z,46.62
2023-02-09T17:17:07.387Z,46.97
2023-02-09T17:19:47.295Z,47.63
2023-02-09T17:22:23.178Z,48.33
2023-02-09T17:24:53.819Z,47.50
2023-02-09T17:27:26.566Z,48.02
2023-02-09T17:29:56.885Z,46.89
2023-02-09T17:32:27.785Z,47.08
2023-02-09T17:34:57.960Z,46.33
2023-02-09T17:37:29.170Z,48.20
2023-02-09T17:39:59.530Z,50.43
2023-02-09T17:42:29.476Z,48.73
2023-02-09T17:44:59.826Z,51.50
2023-02-09T17:47:31.610Z,49.76
2023-02-09T17:50:03.265Z,48.43
2023-02-09T17:52:42.997Z,50.42
2023-02-09T17:55:26.516Z,51.40
2023-02-09T17:57:59.935Z,51.53
2023-02-09T18:00:37.431Z,51.60
2023-02-09T18:03:15.799Z,50.46
2023-02-09T18:05:52.885Z,50.01
2023-02-09T18:08:27.961Z,51.28
2023-02-09T18:10:59.677Z,50.56
2023-02-09T18:13:32.780Z,49.73
2023-02-09T18:16:07.938Z,51.87
2023-02-09T18:18:38.339Z,52.38
2023-02-09T18:21:16.630Z,52.38
2023-02-09T18:23:47.118Z,51.19
2023-02-09T18:26:18.147Z,52.43
2023-02-09T18:28:56.921Z,53.39
2023-02-09T18:31:26.436Z,55.98
2023-02-09T18:33:59.956Z,53.86
2023-02-09T18:36:29.574Z,52.72
2023-02-09T18:39:01.420Z,53.05
2023-02-09T18:41:36.232Z,51.82
2023-02-09T18:44:05.238Z,51.39
2023-02-09T18:46:38.051Z,52.39
2023-02-09T18:49:16.412Z,52.34
2023-02-09T18:52:03.376Z,52.94
2023-02-09T18:54:44.226Z,52.92
2023-02-09T18:57:23.591Z,53.56
2023-02-09T19:00:14.083Z,53.21
2023-02-09T19:02:48.429Z,53.99
2023-02-09T19:05:26.126Z,53.94
2023-02-09T19:08:11.681Z,54.31
2023-02-09T19:10:47.634Z,53.50
2023-02-09T19:13:20.617Z,54.02
2023-02-09T19:15:59.322Z,54.33
2023-02-09T19:18:32.177Z,55.28
2023-02-09T19:21:10.635Z,54.54
2023-02-09T19:23:43.598Z,56.83
2023-02-09T19:26:25.014Z,57.80
2023-02-09T19:29:02.319Z,57.02
2023-02-09T19:31:31.629Z,55.05
2023-02-09T19:34:00.962Z,56.24
2023-02-09T19:36:31.080Z,56.27
2023-02-09T19:39:05.755Z,55.09
2023-02-09T19:41:35.556Z,57.02
2023-02-09T19:44:06.799Z,57.53
2023-02-09T19:46:38.371Z,57.28
2023-02-09T19:49:10.626Z,58.96
2023-02-09T19:51:40.240Z,57.45
2023-02-09T19:54:09.437Z,56.61
2023-02-09T19:56:42.560Z,57.23
2023-02-09T19:59:14.070Z,58.40
2023-02-09T20:01:43.960Z,58.45
2023-02-09T20:04:15.618Z,56.39
2023-02-09T20:06:45.276Z,56.70
2023-02-09T20:09:17.929Z,57.29
2023-02-09T20:14:20.226Z,57.48
2023-02-09T20:16:54.221Z,58.17
2023-02-09T20:19:24.336Z,56.90
2023-02-09T20:21:56.515Z,57.39
2023-02-09T20:24:27.119Z,57.29
2023-02-09T20:26:59.527Z,59.04
2023-02-09T20:29:30.479Z,59.78
2023-02-09T20:32:02.486Z,60.15
2023-02-09T20:34:32.914Z,59.62
2023-02-09T20:37:02.982Z,59.18
2023-02-09T20:39:34.798Z,58.79
2023-02-09T20:42:25.921Z,58.56
2023-02-09T20:45:14.504Z,59.47
2023-02-09T20:47:45.430Z,57.30
2023-02-09T20:50:22.619Z,59.47
2023-02-09T20:53:04.434Z,58.53
2023-02-09T20:55:46.526Z,59.23
2023-02-09T20:58:16.227Z,59.60
2023-02-09T21:00:46.959Z,58.69
2023-02-09T21:03:17.684Z,59.31
2023-02-09T21:05:48.329Z,59.42
2023-02-09T21:08:18.784Z,57.53
2023-02-09T21:10:59.350Z,57.50
2023-02-09T21:13:28.636Z,58.03
2023-02-09T21:15:58.646Z,57.95
2023-02-09T21:18:29.567Z,58.56
2023-02-09T21:21:09.706Z,58.20
2023-02-09T21:23:39.435Z,59.63
2023-02-09T21:26:12.911Z,59.76
2023-02-09T21:28:44.282Z,59.57
2023-02-09T21:31:27.586Z,61.58
2023-02-09T21:33:57.717Z,60.90
2023-02-09T21:36:27.464Z,60.44
2023-02-09T21:38:57.762Z,60.80
2023-02-09T21:41:46.620Z,60.09
2023-02-09T21:44:16.249Z,60.54
2023-02-09T21:46:46.344Z,60.51
2023-02-09T21:49:16.396Z,59.95
2023-02-09T21:51:46.421Z,61.16
2023-02-09T21:54:19.870Z,60.78
2023-02-09T21:56:49.554Z,60.72
2023-02-09T21:59:19.210Z,60.74
2023-02-09T22:01:49.426Z,60.37
2023-02-09T22:04:19.496Z,60.17
2023-02-09T22:06:49.765Z,60.12
2023-02-09T22:09:20.806Z,67.88
2023-02-09T22:11:51.928Z,63.14
2023-02-09T22:14:22.913Z,60.92
2023-02-09T22:16:52.920Z,60.74
2023-02-09T22:19:23.633Z,60.94
2023-02-09T22:21:57.274Z,60.73
2023-02-09T22:24:27.237Z,61.39
2023-02-09T22:26:58.286Z,60.66
2023-02-09T22:29:29.325Z,61.29
2023-02-09T22:31:58.373Z,61.03
2023-02-09T22:34:29.898Z,62.13
2023-02-09T22:36:59.302Z,62.52
2023-02-09T22:39:29.585Z,62.35
2023-02-09T22:42:02.405Z,61.89
2023-02-09T22:44:33.863Z,62.39
2023-02-09T22:47:03.250Z,62.72
2023-02-09T22:49:35.205Z,63.31
2023-02-09T22:52:05.639Z,62.48
2023-02-09T22:54:35.001Z,62.38
2023-02-09T22:57:04.256Z,61.77
2023-02-09T22:59:33.536Z,62.92
2023-02-09T23:02:05.430Z,62.78
2023-02-09T23:04:35.624Z,63.42
2023-02-09T23:07:09.275Z,62.88
2023-02-09T23:09:38.761Z,63.00
2023-02-09T23:12:10.903Z,64.29
2023-02-09T23:14:41.128Z,63.41
2023-02-09T23:17:10.969Z,63.67
2023-02-09T23:19:45.482Z,62.76
2023-02-09T23:22:17.201Z,62.35
2023-02-09T23:24:49.884Z,62.64
2023-02-09T23:27:22.800Z,63.89
2023-02-09T23:29:54.675Z,62.44
2023-02-09T23:32:24.454Z,62.59
2023-02-09T23:34:57.023Z,64.64
2023-02-09T23:37:37.182Z,63.47
2023-02-09T23:40:12.343Z,63.64
2023-02-09T23:42:42.090Z,65.79
2023-02-09T23:45:11.748Z,65.38
2023-02-09T23:47:44.774Z,64.70
2023-02-09T23:50:14.443Z,64.05
2023-02-09T23:52:45.477Z,64.23
2023-02-09T23:55:15.201Z,65.03
2023-02-09T23:57:44.907Z,64.28
